createdAt,value
2023-04-23T00:00:23.413Z,100.00
2023-04-23T00:02:53.520Z,100.00
2023-04-23T00:05:20.536Z,100.00
2023-04-23T00:07:47.426Z,100.00
2023-04-23T00:10:14.234Z,100.00
2023-04-23T00:12:40.895Z,100.00
2023-04-23T00:15:08.157Z,100.00
2023-04-23T00:17:35.629Z,100.00
2023-04-23T00:20:02.290Z,100.00
2023-04-23T00:22:28.957Z,100.00
2023-04-23T00:24:55.389Z,100.00
2023-04-23T00:27:22.133Z,100.00
2023-04-23T00:29:48.666Z,100.00
2023-04-23T00:32:15.157Z,100.00
2023-04-23T00:34:42.052Z,100.00
2023-04-23T00:37:08.733Z,100.00
2023-04-23T00:39:38.728Z,100.00
2023-04-23T00:42:12.558Z,100.00
2023-04-23T00:44:40.293Z,100.00
2023-04-23T00:47:08.197Z,100.00
2023-04-23T00:49:39.443Z,100.00
2023-04-23T00:52:09.044Z,100.00
2023-04-23T00:54:36.696Z,100.00
2023-04-23T00:57:03.639Z,100.00
2023-04-23T00:59:31.656Z,100.00
2023-04-23T01:01:58.473Z,100.00
2023-04-23T01:04:27.964Z,100.00
2023-04-23T01:06:54.951Z,100.00
2023-04-23T01:09:22.466Z,100.00
2023-04-23T01:11:51.037Z,100.00
2023-04-23T01:14:17.631Z,100.00
2023-04-23T01:16:44.177Z,100.00
2023-04-23T01:19:16.144Z,100.00
2023-04-23T01:21:42.728Z,100.00
2023-04-23T01:24:10.793Z,100.00
2023-04-23T01:26:40.837Z,100.00
2023-04-23T01:29:11.245Z,100.00
2023-04-23T01:31:41.989Z,100.00
2023-04-23T01:34:11.616Z,100.00
2023-04-23T01:36:41.615Z,100.00
2023-04-23T01:39:09.579Z,100.00
2023-04-23T01:41:36.030Z,100.00
2023-04-23T01:44:02.707Z,100.00
2023-04-23T01:46:29.408Z,100.00
2023-04-23T01:48:56.120Z,100.00
2023-04-23T01:51:23.767Z,100.00
2023-04-23T01:53:50.188Z,100.00
2023-04-23T01:56:19.628Z,100.00
2023-04-23T01:58:46.120Z,100.00
2023-04-23T02:01:12.651Z,100.00
2023-04-23T02:03:42.170Z,100.00
2023-04-23T02:06:10.974Z,100.00
2023-04-23T02:08:41.197Z,100.00
2023-04-23T02:11:07.815Z,100.00
2023-04-23T02:13:34.590Z,100.00
2023-04-23T02:16:01.206Z,100.00
2023-04-23T02:18:27.741Z,100.00
2023-04-23T02:20:54.289Z,100.00
2023-04-23T02:23:20.816Z,100.00
2023-04-23T02:25:47.368Z,100.00
2023-04-23T02:28:13.857Z,100.00
2023-04-23T02:30:45.789Z,100.00
2023-04-23T02:33:13.034Z,100.00
2023-04-23T02:35:39.547Z,100.00
2023-04-23T02:38:06.093Z,100.00
2023-04-23T02:40:32.591Z,100.00
2023-04-23T02:42:59.075Z,100.00
2023-04-23T02:45:25.829Z,100.00
2023-04-23T02:47:53.555Z,100.00
2023-04-23T02:50:20.249Z,100.00
2023-04-23T02:52:48.271Z,100.00
2023-04-23T02:55:14.720Z,100.00
2023-04-23T02:57:43.285Z,100.00
2023-04-23T03:00:16.009Z,100.00
2023-04-23T03:02:45.795Z,100.00
2023-04-23T03:05:13.565Z,100.00
2023-04-23T03:07:40.191Z,100.00
2023-04-23T03:10:07.150Z,100.00
2023-04-23T03:12:33.818Z,100.00
2023-04-23T03:15:00.546Z,100.00
2023-04-23T03:17:27.058Z,100.00
2023-04-23T03:19:53.729Z,100.00
2023-04-23T03:22:20.177Z,100.00
2023-04-23T03:24:46.623Z,100.00
2023-04-23T03:27:15.232Z,100.00
2023-04-23T03:29:41.805Z,100.00
2023-04-23T03:32:08.315Z,100.00
2023-04-23T03:34:34.835Z,100.00
2023-04-23T03:37:01.320Z,100.00
2023-04-23T03:39:27.821Z,100.00
2023-04-23T03:41:54.330Z,100.00
2023-04-23T03:44:21.188Z,100.00
2023-04-23T03:46:47.636Z,100.00
2023-04-23T03:49:21.273Z,100.00
2023-04-23T03:51:47.746Z,100.00
2023-04-23T03:54:16.594Z,100.00
2023-04-23T03:56:43.018Z,100.00
2023-04-23T03:59:09.605Z,100.00
2023-04-23T04:01:36.290Z,100.00
2023-04-23T04:04:03.089Z,100.00
2023-04-23T04:06:29.823Z,100.00
2023-04-23T04:08:56.331Z,100.00
2023-04-23T04:11:22.821Z,100.00
2023-04-23T04:13:49.476Z,100.00
2023-04-23T04:16:18.269Z,100.00
2023-04-23T04:18:44.865Z,100.00
2023-04-23T04:21:11.340Z,100.00
2023-04-23T04:23:37.804Z,100.00
2023-04-23T04:26:04.869Z,100.00
2023-04-23T04:28:36.164Z,100.00
2023-04-23T04:31:03.278Z,100.00
2023-04-23T04:33:30.621Z,100.00
2023-04-23T04:35:57.424Z,100.00
2023-04-23T04:38:23.902Z,100.00
2023-04-23T04:40:50.568Z,100.00
2023-04-23T04:43:19.091Z,100.00
2023-04-23T04:45:45.566Z,100.00
2023-04-23T04:48:11.996Z,100.00
2023-04-23T04:50:38.515Z,100.00
2023-04-23T04:53:05.044Z,100.00
2023-04-23T04:55:31.541Z,100.00
2023-04-23T04:57:58.186Z,100.00
2023-04-23T05:00:30.156Z,100.00
2023-04-23T05:03:00.097Z,100.00
2023-04-23T05:05:27.703Z,100.00
2023-04-23T05:07:54.475Z,100.00
2023-04-23T05:10:21.441Z,100.00
2023-04-23T05:12:51.956Z,100.00
2023-04-23T05:15:21.972Z,100.00
2023-04-23T05:17:53.601Z,100.00
2023-04-23T05:20:21.633Z,100.00
2023-04-23T05:22:52.251Z,100.00
2023-04-23T05:25:21.716Z,100.00
2023-04-23T05:27:51.399Z,100.00
2023-04-23T05:30:21.812Z,100.00
2023-04-23T05:32:51.187Z,100.00
2023-04-23T05:35:20.652Z,100.00
2023-04-23T05:37:50.256Z,100.00
2023-04-23T05:40:20.047Z,100.00
2023-04-23T05:42:48.844Z,100.00
2023-04-23T05:45:15.423Z,100.00
2023-04-23T05:47:41.856Z,100.00
2023-04-23T05:50:08.657Z,100.00
2023-04-23T05:52:37.349Z,100.00
2023-04-23T05:55:04.385Z,100.00
2023-04-23T05:57:31.147Z,100.00
2023-04-23T05:59:57.654Z,100.00
2023-04-23T06:02:25.309Z,100.00
2023-04-23T06:04:52.455Z,100.00
2023-04-23T06:07:19.281Z,100.00
2023-04-23T06:09:45.844Z,100.00
2023-04-23T06:12:12.326Z,100.00
2023-04-23T06:14:38.839Z,100.00
2023-04-23T06:17:05.367Z,100.00
2023-04-23T06:19:31.888Z,100.00
2023-04-23T06:21:58.378Z,100.00
2023-04-23T06:24:24.818Z,100.00
2023-04-23T06:26:51.357Z,100.00
2023-04-23T06:29:20.696Z,100.00
2023-04-23T06:31:49.633Z,100.00
2023-04-23T06:34:16.170Z,100.00
2023-04-23T06:36:43.830Z,100.00
2023-04-23T06:39:10.521Z,100.00
2023-04-23T06:41:37.015Z,100.00
2023-04-23T06:44:03.470Z,100.00
2023-04-23T06:46:30.044Z,100.00
2023-04-23T06:48:56.563Z,100.00
2023-04-23T06:51:25.846Z,100.00
2023-04-23T06:53:52.336Z,100.00
2023-04-23T06:56:19.316Z,100.00
2023-04-23T06:58:45.781Z,100.00
2023-04-23T07:01:13.338Z,100.00
2023-04-23T07:03:39.986Z,98.27
2023-04-23T07:06:06.613Z,99.12
2023-04-23T07:08:33.089Z,97.51
2023-04-23T07:10:59.768Z,97.57
2023-04-23T07:13:26.528Z,96.02
2023-04-23T07:15:53.287Z,95.11
2023-04-23T07:18:19.738Z,91.83
2023-04-23T07:20:48.488Z,92.78
2023-04-23T07:23:14.941Z,91.85
2023-04-23T07:25:41.474Z,90.95
2023-04-23T07:28:08.021Z,87.27
2023-04-23T07:30:34.497Z,85.26
2023-04-23T07:33:01.111Z,87.32
2023-04-23T07:35:27.726Z,86.23
2023-04-23T07:37:56.021Z,83.07
2023-04-23T07:40:23.119Z,86.11
2023-04-23T07:42:50.993Z,84.76
2023-04-23T07:45:20.264Z,86.94
2023-04-23T07:47:51.560Z,88.58
2023-04-23T07:50:21.268Z,88.38
2023-04-23T07:52:50.969Z,89.89
2023-04-23T07:55:20.714Z,89.12
2023-04-23T07:57:49.456Z,88.69
2023-04-23T08:00:16.115Z,89.01
2023-04-23T08:02:42.776Z,89.63
2023-04-23T08:05:10.096Z,90.72
2023-04-23T08:07:36.705Z,91.68
2023-04-23T08:10:06.100Z,91.65
2023-04-23T08:12:34.641Z,92.05
2023-04-23T08:15:01.351Z,92.29
2023-04-23T08:17:27.957Z,92.91
2023-04-23T08:19:54.491Z,93.11
2023-04-23T08:22:21.978Z,94.81
2023-04-23T08:24:51.725Z,94.61
2023-04-23T08:27:21.677Z,94.79
2023-04-23T08:29:51.811Z,94.13
2023-04-23T08:32:21.409Z,95.52
2023-04-23T08:34:51.016Z,95.81
2023-04-23T08:37:30.347Z,94.13
2023-04-23T08:39:58.012Z,95.13
2023-04-23T08:42:37.607Z,94.97
2023-04-23T08:45:07.639Z,94.53
2023-04-23T08:47:35.893Z,94.55
2023-04-23T08:50:04.681Z,95.23
2023-04-23T08:52:34.814Z,94.29
2023-04-23T08:55:05.017Z,93.00
2023-04-23T08:57:31.978Z,93.01
2023-04-23T08:59:59.545Z,92.31
2023-04-23T09:02:26.682Z,92.31
2023-04-23T09:04:56.209Z,89.56
2023-04-23T09:07:23.692Z,89.06
2023-04-23T09:09:53.603Z,90.66
2023-04-23T09:12:21.367Z,88.55
2023-04-23T09:14:52.817Z,88.63
2023-04-23T09:17:23.557Z,89.92
2023-04-23T09:19:54.638Z,89.20
2023-04-23T09:22:49.837Z,90.75
2023-04-23T09:25:21.123Z,90.04
2023-04-23T09:27:52.383Z,88.01
2023-04-23T09:30:25.366Z,87.44
2023-04-23T09:32:52.012Z,86.40
2023-04-23T09:35:20.832Z,85.99
2023-04-23T09:37:56.069Z,85.68
2023-04-23T09:40:25.023Z,85.63
2023-04-23T09:42:54.472Z,86.40
2023-04-23T09:45:21.746Z,84.25
2023-04-23T09:47:57.047Z,81.92
2023-04-23T09:50:34.858Z,81.98
2023-04-23T09:53:01.585Z,79.45
2023-04-23T09:55:35.572Z,78.81
2023-04-23T09:58:04.519Z,77.10
2023-04-23T10:00:38.464Z,76.42
2023-04-23T10:03:07.537Z,74.25
2023-04-23T10:08:09.584Z,69.59
2023-04-23T10:10:47.070Z,72.68
2023-04-23T10:13:24.367Z,69.89
2023-04-23T10:15:51.491Z,67.68
2023-04-23T10:18:22.888Z,69.93
2023-04-23T10:20:52.704Z,66.40
2023-04-23T10:23:23.671Z,66.97
2023-04-23T10:25:57.621Z,65.18
2023-04-23T10:28:29.135Z,63.95
2023-04-23T10:30:57.087Z,64.77
2023-04-23T10:33:30.537Z,64.71
2023-04-23T10:36:00.320Z,64.94
2023-04-23T10:38:28.422Z,64.96
2023-04-23T10:40:56.965Z,60.52
2023-04-23T10:43:24.683Z,63.06
2023-04-23T10:45:51.225Z,60.70
2023-04-23T10:48:20.401Z,62.85
2023-04-23T10:51:05.765Z,60.34
2023-04-23T10:53:36.869Z,62.06
2023-04-23T10:56:07.804Z,60.69
2023-04-23T10:58:51.891Z,63.72
2023-04-23T11:01:20.808Z,63.17
2023-04-23T11:03:50.242Z,63.42
2023-04-23T11:06:55.247Z,62.43
2023-04-23T11:09:44.677Z,62.07
2023-04-23T11:12:32.188Z,62.47
2023-04-23T11:14:59.762Z,63.46
2023-04-23T11:17:32.322Z,65.33
2023-04-23T11:20:16.396Z,67.89
2023-04-23T11:22:44.447Z,71.67
2023-04-23T11:25:30.303Z,74.58
2023-04-23T11:28:00.673Z,77.46
2023-04-23T11:30:29.722Z,79.59
2023-04-23T11:32:57.615Z,80.40
2023-04-23T11:35:28.527Z,77.00
2023-04-23T11:37:55.279Z,77.79
2023-04-23T11:40:22.265Z,76.82
2023-04-23T11:42:54.840Z,80.64
2023-04-23T11:45:24.619Z,82.07
2023-04-23T11:47:56.180Z,83.55
2023-04-23T11:50:24.992Z,81.13
2023-04-23T11:52:52.914Z,82.96
2023-04-23T11:55:23.848Z,82.46
2023-04-23T11:57:59.073Z,81.13
2023-04-23T12:00:27.137Z,81.40
2023-04-23T12:03:02.143Z,82.96
2023-04-23T12:05:30.120Z,84.39
2023-04-23T12:11:46.094Z,80.24
2023-04-23T12:21:45.732Z,78.35
2023-04-23T12:24:08.818Z,75.34
2023-04-23T12:26:39.309Z,76.65
2023-04-23T12:29:07.585Z,74.88
2023-04-23T12:31:34.064Z,74.24
2023-04-23T12:34:07.838Z,74.40
2023-04-23T12:36:39.814Z,73.87
2023-04-23T12:39:26.434Z,72.95
2023-04-23T12:41:56.386Z,72.33
2023-04-23T12:44:29.007Z,70.38
2023-04-23T12:47:03.240Z,68.83
2023-04-23T12:49:29.973Z,67.58
2023-04-23T12:51:57.879Z,67.14
2023-04-23T12:54:26.579Z,67.95
2023-04-23T12:56:55.904Z,69.75
2023-04-23T12:59:26.579Z,69.48
2023-04-23T13:01:54.490Z,69.00
2023-04-23T13:04:23.583Z,68.59
2023-04-23T13:06:53.589Z,68.87
2023-04-23T13:09:22.009Z,79.76
2023-04-23T13:11:49.824Z,73.96
2023-04-23T13:14:16.839Z,72.59
2023-04-23T13:16:43.636Z,72.23
2023-04-23T13:19:10.850Z,84.65
2023-04-23T13:21:37.321Z,74.62
2023-04-23T13:24:03.972Z,69.70
2023-04-23T13:26:32.403Z,69.85
2023-04-23T13:29:02.181Z,68.26
2023-04-23T13:31:29.630Z,69.49
2023-04-23T13:33:56.220Z,69.17
2023-04-23T13:36:25.818Z,70.93
2023-04-23T13:38:55.648Z,69.30
2023-04-23T13:41:24.459Z,69.69
2023-04-23T13:43:51.252Z,70.91
2023-04-23T13:46:19.777Z,71.68
2023-04-23T13:48:47.072Z,71.73
2023-04-23T13:51:32.641Z,68.35
2023-04-23T13:54:00.189Z,70.27
2023-04-23T13:56:27.552Z,67.02
2023-04-23T13:59:15.535Z,67.81
2023-04-23T14:01:44.497Z,68.80
2023-04-23T14:04:13.032Z,66.89
2023-04-23T14:06:40.106Z,66.73
2023-04-23T14:09:06.666Z,66.72
2023-04-23T14:11:33.503Z,64.86
2023-04-23T14:14:01.222Z,66.12
2023-04-23T14:16:27.874Z,67.02
2023-04-23T14:18:55.004Z,67.12
2023-04-23T14:21:24.517Z,67.71
2023-04-23T14:24:06.710Z,66.56
2023-04-23T14:26:47.946Z,65.74
2023-04-23T14:29:35.533Z,65.96
2023-04-23T14:32:02.265Z,67.40
2023-04-23T14:34:28.792Z,63.83
2023-04-23T14:36:58.003Z,61.24
2023-04-23T14:39:29.330Z,58.03
2023-04-23T14:41:56.418Z,55.59
2023-04-23T14:44:31.881Z,53.15
2023-04-23T14:46:59.112Z,49.23
2023-04-23T14:49:25.951Z,51.75
2023-04-23T14:51:55.146Z,48.92
2023-04-23T14:54:22.810Z,49.98
2023-04-23T14:56:55.172Z,52.48
2023-04-23T14:59:21.904Z,53.15
2023-04-23T15:01:48.623Z,52.35
2023-04-23T15:04:16.960Z,51.88
2023-04-23T15:06:43.733Z,50.51
2023-04-23T15:09:10.248Z,50.85
2023-04-23T15:11:38.721Z,50.70
2023-04-23T15:14:05.220Z,50.25
2023-04-23T15:19:06.669Z,49.70
2023-04-23T15:21:33.176Z,49.27
2023-04-23T15:23:59.757Z,48.95
2023-04-23T15:26:30.268Z,48.50
2023-04-23T15:28:56.814Z,51.06
2023-04-23T15:31:23.532Z,50.75
2023-04-23T15:33:50.582Z,51.94
2023-04-23T15:36:17.132Z,50.58
2023-04-23T15:38:43.609Z,53.33
2023-04-23T15:41:11.437Z,52.41
2023-04-23T15:43:37.970Z,52.51
2023-04-23T15:46:04.609Z,51.56
2023-04-23T15:48:31.096Z,53.46
2023-04-23T15:50:57.746Z,53.94
2023-04-23T15:53:26.254Z,52.02
2023-04-23T15:55:52.702Z,52.48
2023-04-23T15:58:19.815Z,53.13
2023-04-23T16:00:46.986Z,53.21
2023-04-23T16:03:15.080Z,54.03
2023-04-23T16:05:42.277Z,54.59
2023-04-23T16:08:09.177Z,55.51
2023-04-23T16:10:38.208Z,56.36
2023-04-23T16:13:06.116Z,55.31
2023-04-23T16:15:32.635Z,56.61
2023-04-23T16:18:00.249Z,56.72
2023-04-23T16:20:29.847Z,56.90
2023-04-23T16:22:59.054Z,57.75
2023-04-23T16:25:29.264Z,57.95
2023-04-23T16:27:57.119Z,58.90
2023-04-23T16:30:26.291Z,60.69
2023-04-23T16:32:52.852Z,60.11
2023-04-23T16:35:19.417Z,60.22
2023-04-23T16:37:45.945Z,59.34
2023-04-23T16:40:15.135Z,59.38
2023-04-23T16:42:42.799Z,58.85
2023-04-23T16:45:09.657Z,58.75
2023-04-23T16:47:36.231Z,58.40
2023-04-23T16:50:10.175Z,58.33
2023-04-23T16:52:36.745Z,58.92
2023-04-23T16:55:03.393Z,59.02
2023-04-23T16:57:32.999Z,59.78
2023-04-23T16:59:59.509Z,59.88
2023-04-23T17:02:26.565Z,59.37
2023-04-23T17:04:53.221Z,60.53
2023-04-23T17:07:19.918Z,59.37
2023-04-23T17:09:46.398Z,58.91
2023-04-23T17:12:12.868Z,60.13
2023-04-23T17:14:39.502Z,58.93
2023-04-23T17:17:06.132Z,58.73
2023-04-23T17:19:33.040Z,58.57
2023-04-23T17:22:00.164Z,58.95
2023-04-23T17:24:29.736Z,59.37
2023-04-23T17:26:59.481Z,60.13
2023-04-23T17:31:14.021Z,62.11
2023-04-23T17:32:40.009Z,62.62
2023-04-23T17:35:10.593Z,61.23
2023-04-23T17:37:37.407Z,62.80
2023-04-23T17:40:05.792Z,62.61
2023-04-23T17:42:32.285Z,64.86
2023-04-23T17:44:58.760Z,64.42
2023-04-23T17:47:27.878Z,63.95
2023-04-23T17:49:58.951Z,64.72
2023-04-23T17:52:27.968Z,64.75
2023-04-23T17:54:55.962Z,65.36
2023-04-23T17:57:22.483Z,67.51
2023-04-23T17:59:48.958Z,68.08
2023-04-23T18:02:16.149Z,68.42
2023-04-23T18:04:42.754Z,68.14
2023-04-23T18:07:09.219Z,69.50
2023-04-23T18:09:36.004Z,70.88
2023-04-23T18:12:04.004Z,71.48
2023-04-23T18:14:30.604Z,73.05
2023-04-23T18:16:58.276Z,73.86
2023-04-23T18:19:30.918Z,74.33
2023-04-23T18:22:02.098Z,74.36
2023-04-23T18:24:28.789Z,74.06
2023-04-23T18:26:59.124Z,74.94
2023-04-23T18:29:31.495Z,75.22
2023-04-23T18:31:58.296Z,75.44
2023-04-23T18:34:30.760Z,75.57
2023-04-23T18:37:03.136Z,75.36
2023-04-23T18:39:32.315Z,75.73
2023-04-23T18:41:59.332Z,75.65
2023-04-23T18:44:29.761Z,75.76
2023-04-23T18:46:59.465Z,75.65
2023-04-23T18:49:46.307Z,75.74
2023-04-23T18:52:13.024Z,76.17
2023-04-23T18:54:40.930Z,76.67
2023-04-23T18:57:28.741Z,76.64
2023-04-23T18:59:58.197Z,77.51
2023-04-23T19:02:35.100Z,77.92
2023-04-23T19:05:02.214Z,77.96
2023-04-23T19:07:28.803Z,78.81
2023-04-23T19:09:58.732Z,79.09
2023-04-23T19:15:57.751Z,78.58
2023-04-23T19:18:26.722Z,79.19
2023-04-23T19:20:53.356Z,79.33
2023-04-23T19:23:20.505Z,79.32
2023-04-23T19:25:47.880Z,79.94
2023-04-23T19:28:14.641Z,80.49
2023-04-23T19:30:41.388Z,80.12
2023-04-23T19:33:08.139Z,80.58
2023-04-23T19:35:34.697Z,81.05
2023-04-23T19:38:01.170Z,81.07
2023-04-23T19:40:27.893Z,80.97
2023-04-23T19:42:57.417Z,80.25
2023-04-23T19:45:26.095Z,79.67
2023-04-23T19:47:54.645Z,79.89
2023-04-23T19:50:21.886Z,80.56
2023-04-23T19:52:48.702Z,81.02
2023-04-23T19:55:15.699Z,81.27
2023-04-23T19:57:42.193Z,82.86
2023-04-23T20:00:13.528Z,83.58
2023-04-23T20:02:40.777Z,84.15
2023-04-23T20:05:10.321Z,84.25
2023-04-23T20:07:40.037Z,84.58
2023-04-23T20:10:07.559Z,84.31
2023-04-23T20:12:35.014Z,84.16
2023-04-23T20:15:02.131Z,83.94
2023-04-23T20:17:30.098Z,84.15
2023-04-23T20:20:01.771Z,83.74
2023-04-23T20:22:29.449Z,82.46
2023-04-23T20:24:57.771Z,82.94
2023-04-23T20:27:28.169Z,83.40
2023-04-23T20:29:56.460Z,83.69
2023-04-23T20:32:23.062Z,83.16
2023-04-23T20:34:49.653Z,84.00
2023-04-23T20:37:21.671Z,84.13
2023-04-23T20:39:49.288Z,84.71
2023-04-23T20:42:15.805Z,84.31
2023-04-23T20:44:45.430Z,83.76
2023-04-23T20:47:11.977Z,84.41
2023-04-23T20:49:39.965Z,84.57
2023-04-23T20:52:06.988Z,84.01
2023-04-23T20:54:34.756Z,84.15
2023-04-23T20:57:02.304Z,84.02
2023-04-23T20:59:31.408Z,84.48
2023-04-23T21:01:58.701Z,84.31
2023-04-23T21:04:25.383Z,84.02
2023-04-23T21:06:51.971Z,83.88
2023-04-23T21:09:18.466Z,83.50
2023-04-23T21:11:44.938Z,83.24
2023-04-23T21:14:11.454Z,82.90
2023-04-23T21:16:38.236Z,82.72
2023-04-23T21:19:05.822Z,81.97
2023-04-23T21:21:32.437Z,82.06
2023-04-23T21:24:02.057Z,81.78
2023-04-23T21:26:31.870Z,81.24
2023-04-23T21:29:01.664Z,81.34
2023-04-23T21:31:48.494Z,80.44
2023-04-23T21:34:15.372Z,81.30
2023-04-23T21:36:44.505Z,81.59
2023-04-23T21:39:13.008Z,82.25
2023-04-23T21:41:39.954Z,81.80
2023-04-23T21:44:06.633Z,81.81
2023-04-23T21:46:33.330Z,81.92
2023-04-23T21:49:02.938Z,81.74
2023-04-23T21:51:37.043Z,81.79
2023-04-23T21:54:05.496Z,82.54
2023-04-23T21:56:32.257Z,82.67
2023-04-23T21:58:59.635Z,82.25
2023-04-23T22:01:26.174Z,81.87
2023-04-23T22:03:52.920Z,82.27
2023-04-23T22:06:19.902Z,82.10
2023-04-23T22:08:46.602Z,82.80
2023-04-23T22:11:14.441Z,83.66
2023-04-23T22:13:41.001Z,83.36
2023-04-23T22:16:24.613Z,83.70
2023-04-23T22:18:54.907Z,83.56
2023-04-23T22:21:21.460Z,83.57
2023-04-23T22:23:48.056Z,83.22
2023-04-23T22:26:14.492Z,84.31
2023-04-23T22:28:43.397Z,84.15
2023-04-23T22:31:09.978Z,84.17
2023-04-23T22:33:36.727Z,84.51
2023-04-23T22:36:03.745Z,84.88
2023-04-23T22:38:30.250Z,84.57
2023-04-23T22:40:56.759Z,84.48
2023-04-23T22:43:23.202Z,84.96
2023-04-23T22:45:49.738Z,85.01
2023-04-23T22:48:16.300Z,84.43
2023-04-23T22:50:43.182Z,83.87
2023-04-23T22:53:09.676Z,84.63
2023-04-23T22:55:36.207Z,84.57
2023-04-23T22:58:04.621Z,84.85
2023-04-23T23:00:31.135Z,85.30
2023-04-23T23:02:57.718Z,85.38
2023-04-23T23:05:24.261Z,85.82
2023-04-23T23:07:51.613Z,85.90
2023-04-23T23:10:21.505Z,85.14
2023-04-23T23:12:49.384Z,84.49
2023-04-23T23:15:15.897Z,84.78
2023-04-23T23:17:42.472Z,84.74
2023-04-23T23:20:09.632Z,85.15
2023-04-23T23:22:39.193Z,85.28
2023-04-23T23:25:07.258Z,83.54
2023-04-23T23:27:35.154Z,84.31
2023-04-23T23:30:08.823Z,85.25
2023-04-23T23:32:36.679Z,85.65
2023-04-23T23:35:06.033Z,85.96
2023-04-23T23:37:32.630Z,86.81
2023-04-23T23:39:59.100Z,87.81
2023-04-23T23:42:25.730Z,88.08
2023-04-23T23:44:52.210Z,87.90
2023-04-23T23:47:18.914Z,87.54
2023-04-23T23:49:45.508Z,88.28
2023-04-23T23:52:12.060Z,88.26
2023-04-23T23:54:38.534Z,88.57
2023-04-23T23:57:05.855Z,89.50
2023-04-23T23:59:32.710Z,89.46
